Terminal Aerodrome Forecast
Issued by NWS Portland, OR

Home | Current Version | Previous Version | Text Only | Print | Product List | Glossary On
Versions: 1 2 3 4 5 6 7 8 9 10 11 12 13 14 15 16 17 18 19
185
FTUS46 KPQR 221720
TAFSLE
TAF
KSLE 221720Z 2218/2318 22004KT P6SM OVC015
      TEMPO 2218/2220 -SHRA
     FM222200 22004KT P6SM SCT015 OVC025
     FM230200 27006KT P6SM SCT025 BKN120
     FM230600 24004KT P6SM OVC025
     FM231200 VRB03KT P6SM -DZ OVC015=

USA.gov is the U.S. government's official web portal to all federal, state and local government web resources and services.